Time;durP1;ratioP1;P1;durP2;ratioP2;P2;SDS_P1;SDS_P2;PMS_P1;PMS_P2;Temp;Humidity;BMP_temperature;BMP_pressure;BME280_temperature;BME280_humidity;BME280_pressure;Samples;Min_cycle;Max_cycle;Signal;HPM_P1;HPM_P2
2022/05/07 00:00:32;;;;;;;48.20;35.03;;;;;;;12.20;100.00;98628.73;1742860;82;21228;-80
2022/05/07 00:03:00;;;;;;;57.55;35.23;;;;;;;12.22;100.00;98625.22;1743332;81;21054;-89
2022/05/07 00:05:26;;;;;;;52.35;36.25;;;;;;;12.24;100.00;98624.94;1739312;81;20982;-91
2022/05/07 00:07:52;;;;;;;51.02;35.48;;;;;;;12.25;100.00;98625.20;1710707;82;20974;-90
2022/05/07 00:10:17;;;;;;;51.90;34.20;;;;;;;12.26;100.00;98626.83;1722451;80;20947;-81
2022/05/07 00:12:43;;;;;;;47.50;31.68;;;;;;;12.26;100.00;98633.08;1743337;81;21235;-89
2022/05/07 00:15:09;;;;;;;47.48;30.50;;;;;;;12.26;100.00;98630.36;1723479;82;20893;-89
2022/05/07 00:20:19;;;;;;;52.98;33.15;;;;;;;12.21;100.00;98624.92;1705875;80;21228;-90
2022/05/07 00:22:45;;;;;;;48.25;34.03;;;;;;;12.19;100.00;98627.11;1728502;80;21002;-80
2022/05/07 00:25:11;;;;;;;55.10;34.83;;;;;;;12.18;100.00;98627.39;1738383;82;21169;-88
2022/05/07 00:27:37;;;;;;;47.83;32.35;;;;;;;12.14;100.00;98629.86;1743399;81;20839;-90
2022/05/07 00:30:05;;;;;;;55.10;34.83;;;;;;;12.14;100.00;98625.23;1743636;82;20937;-81
2022/05/07 00:32:31;;;;;;;72.25;41.00;;;;;;;12.17;100.00;98624.41;1739412;81;21012;-90
2022/05/07 00:34:57;;;;;;;57.53;37.17;;;;;;;12.17;100.00;98617.06;1708068;82;21623;-90
2022/05/07 00:37:26;;;;;;;50.10;33.75;;;;;;;12.18;100.00;98623.31;1727131;80;21230;-89
2022/05/07 00:39:52;;;;;;;47.80;32.35;;;;;;;12.19;100.00;98616.24;1726820;80;28249;-90
2022/05/07 00:42:18;;;;;;;43.38;29.45;;;;;;;12.20;100.00;98615.69;1703752;82;21089;-90
2022/05/07 00:44:44;;;;;;;43.78;29.80;;;;;;;12.20;100.00;98619.22;1727924;82;21631;-90
2022/05/07 00:47:24;;;;;;;42.08;28.92;;;;;;;12.21;100.00;98615.96;1743197;81;21068;-81
2022/05/07 00:51:33;;;;;;;42.00;28.92;;;;;;;12.22;100.00;98613.51;1743411;82;21072;-80
2022/05/07 00:52:23;;;;;;;47.05;32.23;;;;;;;12.20;100.00;98610.26;1742719;80;21028;-81
2022/05/07 00:54:49;;;;;;;46.75;33.08;;;;;;;12.17;100.00;98609.47;1714084;82;20895;-90
2022/05/07 00:57:15;;;;;;;47.65;33.23;;;;;;;12.13;100.00;98605.11;1726921;80;20975;-84
2022/05/07 00:59:41;;;;;;;44.00;32.03;;;;;;;12.13;100.00;98611.90;1749284;80;21528;-78
2022/05/07 01:02:08;;;;;;;47.00;30.48;;;;;;;12.11;100.00;98610.83;1704726;82;21146;-80
2022/05/07 01:04:35;;;;;;;43.73;31.33;;;;;;;12.12;100.00;98611.63;1728088;80;21093;-80
2022/05/07 01:07:02;;;;;;;41.30;28.40;;;;;;;12.09;100.00;98605.41;1728542;80;21062;-85
2022/05/07 01:09:29;;;;;;;41.08;29.45;;;;;;;12.07;99.95;98604.88;1728752;80;21070;-79
2022/05/07 01:11:55;;;;;;;41.92;28.95;;;;;;;12.03;100.00;98614.64;1739625;80;21448;-80
2022/05/07 01:14:21;;;;;;;40.92;29.30;;;;;;;11.98;99.81;98614.67;1725912;82;21024;-90
2022/05/07 01:16:47;;;;;;;43.73;30.88;;;;;;;11.93;99.78;98612.77;1715084;82;20967;-80
2022/05/07 01:19:13;;;;;;;51.85;33.35;;;;;;;11.89;100.00;98606.81;1703652;82;20909;-89
2022/05/07 01:21:39;;;;;;;51.48;33.70;;;;;;;11.89;100.00;98613.59;1719515;80;20891;-80
2022/05/07 01:24:06;;;;;;;47.45;32.73;;;;;;;11.91;100.00;98616.84;1731541;80;20862;-80
2022/05/07 01:26:32;;;;;;;45.23;29.65;;;;;;;11.90;100.00;98613.32;1719421;82;21154;-80
2022/05/07 01:29:01;;;;;;;42.08;29.05;;;;;;;11.90;100.00;98614.67;1703348;82;21472;-90
2022/05/07 01:31:28;;;;;;;42.98;28.40;;;;;;;11.91;100.00;98608.16;1717513;80;21010;-81
2022/05/07 01:33:54;;;;;;;39.18;28.75;;;;;;;11.88;100.00;98611.95;1729821;80;21013;-90
2022/05/07 01:36:20;;;;;;;45.20;33.80;;;;;;;11.83;100.00;98610.88;1728029;82;20954;-90
2022/05/07 01:38:46;;;;;;;42.43;32.50;;;;;;;11.80;100.00;98609.27;1724660;80;21188;-91
2022/05/07 01:41:12;;;;;;;46.37;31.82;;;;;;;11.81;100.00;98614.41;1743194;82;21075;-90
2022/05/07 01:43:38;;;;;;;42.15;29.92;;;;;;;11.84;100.00;98610.33;1742751;81;20910;-80
2022/05/07 01:48:09;;;;;;;55.03;33.20;;;;;;;11.86;100.00;98613.58;1719790;80;21041;-89
2022/05/07 01:48:32;;;;;;;72.92;37.65;;;;;;;11.84;100.00;98612.50;1735070;80;20989;-80
2022/05/07 01:50:59;;;;;;;59.05;34.20;;;;;;;11.84;100.00;98608.97;1743353;82;21567;-90
2022/05/07 01:53:24;;;;;;;48.10;31.87;;;;;;;11.83;100.00;98608.16;1727696;81;21077;-90
2022/05/07 01:55:50;;;;;;;50.30;35.03;;;;;;;11.83;100.00;98608.70;1703329;82;21368;-82
2022/05/07 01:58:16;;;;;;;62.03;33.92;;;;;;;11.85;100.00;98611.41;1714500;80;21005;-90
2022/05/07 02:00:42;;;;;;;53.63;33.60;;;;;;;11.85;100.00;98609.23;1741692;80;20941;-80
2022/05/07 02:03:08;;;;;;;40.33;30.12;;;;;;;11.81;100.00;98606.27;1743242;81;21311;-81
2022/05/07 02:05:34;;;;;;;44.60;32.63;;;;;;;11.80;100.00;98601.12;1717101;82;20883;-86
2022/05/07 02:08:01;;;;;;;42.33;30.37;;;;;;;11.78;100.00;98597.81;1711650;80;20986;-81
2022/05/07 02:10:28;;;;;;;42.00;28.15;;;;;;;11.77;100.00;98596.19;1757611;80;20997;-80
2022/05/07 02:12:54;;;;;;;37.48;28.77;;;;;;;11.76;100.00;98602.16;1713486;83;21132;-80
2022/05/07 02:15:20;;;;;;;41.13;29.77;;;;;;;11.76;100.00;98610.85;1717066;82;21841;-90
2022/05/07 02:17:46;;;;;;;50.00;35.40;;;;;;;11.73;100.00;98603.27;1743122;81;20875;-90
2022/05/07 02:20:12;;;;;;;50.28;36.03;;;;;;;11.74;100.00;98603.53;1726895;82;20913;-90
2022/05/07 02:22:38;;;;;;;45.05;31.33;;;;;;;11.72;100.00;98606.52;1725305;80;20874;-89
2022/05/07 02:25:05;;;;;;;41.55;29.07;;;;;;;11.76;100.00;98606.23;1739759;80;21017;-91
2022/05/07 02:27:31;;;;;;;59.90;38.38;;;;;;;11.76;100.00;98610.30;1713652;83;21124;-81
2022/05/07 02:29:57;;;;;;;59.20;39.25;;;;;;;11.72;100.00;98613.31;1730534;82;20970;-80
2022/05/07 02:32:22;;;;;;;54.25;33.50;;;;;;;11.72;100.00;98607.88;1741151;81;20993;-80
2022/05/07 02:34:48;;;;;;;47.03;32.38;;;;;;;11.74;100.00;98611.67;1708496;82;21603;-80
2022/05/07 02:37:14;;;;;;;49.75;33.30;;;;;;;11.76;100.00;98608.13;1713129;82;20996;-80
2022/05/07 02:39:40;;;;;;;50.48;33.88;;;;;;;11.74;100.00;98607.60;1743606;82;21308;-81
2022/05/07 02:44:51;;;;;;;56.30;33.48;;;;;;;11.77;100.00;98611.12;1729355;82;21025;-80
2022/05/07 02:47:17;;;;;;;50.73;32.88;;;;;;;11.78;100.00;98612.20;1743286;81;20940;-90
2022/05/07 02:49:43;;;;;;;51.55;35.65;;;;;;;11.79;100.00;98613.85;1743552;82;21674;-90
2022/05/07 02:52:08;;;;;;;50.83;33.65;;;;;;;11.80;100.00;98609.27;1742637;81;21863;-90
2022/05/07 02:54:34;;;;;;;45.90;31.40;;;;;;;11.81;100.00;98611.70;1743205;80;20874;-90
2022/05/07 02:57:00;;;;;;;52.00;35.73;;;;;;;11.81;100.00;98608.17;1743007;81;21492;-80
2022/05/07 02:59:26;;;;;;;49.25;33.10;;;;;;;11.78;100.00;98610.84;1743458;82;20957;-90
2022/05/07 03:01:52;;;;;;;51.20;34.43;;;;;;;11.78;100.00;98618.98;1721428;82;20844;-90
2022/05/07 03:04:19;;;;;;;56.53;35.63;;;;;;;11.77;100.00;98617.91;1726825;80;22376;-90
2022/05/07 03:06:45;;;;;;;44.90;30.48;;;;;;;11.72;100.00;98613.31;1738635;80;21009;-80
2022/05/07 03:09:11;;;;;;;62.20;36.88;;;;;;;11.74;100.00;98615.75;1743604;82;21032;-90
2022/05/07 03:11:36;;;;;;;56.70;35.98;;;;;;;11.69;100.00;98619.27;1743192;81;21554;-89
2022/05/07 03:14:06;;;;;;;71.90;41.90;;;;;;;11.69;100.00;98618.45;1718808;82;21414;-90
2022/05/07 03:16:33;;;;;;;48.65;33.67;;;;;;;11.68;100.00;98613.56;1718411;80;21341;-80
2022/05/07 03:18:59;;;;;;;53.13;35.08;;;;;;;11.66;100.00;98609.50;1720028;80;21027;-80
2022/05/07 03:21:25;;;;;;;53.28;33.40;;;;;;;11.65;100.00;98619.55;1736838;80;20961;-89
2022/05/07 03:23:51;;;;;;;76.67;40.38;;;;;;;11.64;100.00;98617.11;1743384;82;21442;-81
2022/05/07 03:26:17;;;;;;;54.50;34.92;;;;;;;11.60;100.00;98618.18;1743316;81;20901;-90
2022/05/07 03:28:43;;;;;;;77.53;42.33;;;;;;;11.61;100.00;98621.70;1724083;82;21315;-88
2022/05/07 03:31:09;;;;;;;79.80;42.50;;;;;;;11.59;100.00;98614.66;1703231;82;20951;-84
2022/05/07 03:33:35;;;;;;;82.82;41.92;;;;;;;11.61;100.00;98621.16;1703209;82;20982;-89
2022/05/07 03:36:01;;;;;;;63.65;38.02;;;;;;;11.63;100.00;98618.20;1728787;80;21033;-90
2022/05/07 03:38:27;;;;;;;68.75;38.78;;;;;;;11.63;100.00;98619.02;1728424;80;20895;-90
2022/05/07 03:40:53;;;;;;;65.83;38.70;;;;;;;11.66;100.00;98623.89;1728869;80;21329;-82
2022/05/07 03:43:18;;;;;;;57.55;34.75;;;;;;;11.67;100.00;98623.34;1736579;81;20922;-81
2022/05/07 03:45:44;;;;;;;61.02;36.93;;;;;;;11.66;100.00;98625.25;1719493;80;20958;-80
2022/05/07 03:48:10;;;;;;;56.28;34.70;;;;;;;11.66;100.00;98625.25;1734586;80;20957;-83
2022/05/07 03:50:36;;;;;;;57.38;34.23;;;;;;;11.66;100.00;98622.53;1743432;82;20952;-80
2022/05/07 03:55:46;;;;;;;43.45;30.92;;;;;;;11.66;100.00;98617.11;1740163;82;21012;-81
2022/05/07 03:58:15;;;;;;;48.13;31.07;;;;;;;11.65;100.00;98612.77;1743089;81;20886;-80
2022/05/07 04:00:46;;;;;;;57.67;33.65;;;;;;;11.64;100.00;98608.42;1743362;82;21405;-80
2022/05/07 04:03:10;;;;;;;63.43;37.90;;;;;;;11.67;100.00;98615.20;1741660;81;21441;-80
2022/05/07 04:05:36;;;;;;;74.85;41.00;;;;;;;11.66;100.00;98613.58;1743424;82;21183;-91
2022/05/07 04:08:03;;;;;;;74.20;39.88;;;;;;;11.66;100.00;98613.58;1732697;81;21063;-80
2022/05/07 04:10:29;;;;;;;74.80;39.25;;;;;;;11.67;100.00;98622.80;1725782;82;20981;-90
2022/05/07 04:12:55;;;;;;;69.87;38.92;;;;;;;11.68;100.00;98619.00;1710421;82;21070;-89
2022/05/07 04:15:21;;;;;;;65.20;36.08;;;;;;;11.71;100.00;98621.19;1720109;80;20884;-90
2022/05/07 04:17:48;;;;;;;60.70;35.50;;;;;;;11.76;100.00;98625.78;1711029;82;21950;-88
2022/05/07 04:20:14;;;;;;;60.08;34.63;;;;;;;11.76;100.00;98628.50;1673299;85;21465;-81
2022/05/07 04:22:40;;;;;;;64.12;37.10;;;;;;;11.77;100.00;98628.77;1713529;83;20851;-80
2022/05/07 04:25:09;;;;;;;57.40;35.28;;;;;;;11.79;100.00;98631.50;1707462;80;20987;-81
2022/05/07 04:27:34;;;;;;;55.73;35.17;;;;;;;11.85;100.00;98626.89;1728813;80;21066;-91
2022/05/07 04:30:00;;;;;;;56.73;32.33;;;;;;;11.89;100.00;98626.63;1742882;82;22041;-88
2022/05/07 04:32:27;;;;;;;50.85;31.85;;;;;;;11.93;100.00;98625.53;1714800;82;21064;-80
2022/05/07 04:34:55;;;;;;;62.15;37.53;;;;;;;11.98;100.00;98629.61;1716052;83;21071;-91
2022/05/07 04:37:22;;;;;;;53.00;31.87;;;;;;;12.04;100.00;98628.48;1706966;82;21020;-90
2022/05/07 04:39:48;;;;;;;48.38;32.08;;;;;;;12.09;100.00;98623.88;1679229;80;20994;-80
2022/05/07 04:42:14;;;;;;;53.92;31.23;;;;;;;12.15;100.00;98626.05;1695619;82;21048;-90
2022/05/07 04:44:40;;;;;;;64.92;37.65;;;;;;;12.22;100.00;98625.73;1689470;84;20982;-90
2022/05/07 04:47:06;;;;;;;127.72;55.20;;;;;;;12.25;100.00;98621.13;1703046;82;20970;-90
2022/05/07 04:49:32;;;;;;;177.60;75.20;;;;;;;12.34;100.00;98630.34;1731915;82;20866;-91
2022/05/07 04:51:59;;;;;;;122.22;62.98;;;;;;;12.38;100.00;98619.17;1710274;82;21030;-90
2022/05/07 04:54:24;;;;;;;80.97;45.90;;;;;;;12.39;100.00;98622.16;1712681;82;21290;-90
2022/05/07 04:56:51;;;;;;;50.23;32.80;;;;;;;12.48;100.00;98626.50;1721579;80;20883;-89
2022/05/07 04:59:19;;;;;;;51.63;34.50;;;;;;;12.54;100.00;98626.73;1718778;83;21032;-81
2022/05/07 05:01:45;;;;;;;43.17;30.27;;;;;;;12.62;100.00;98636.48;1713786;83;21025;-91
2022/05/07 05:04:11;;;;;;;38.55;27.52;;;;;;;12.64;100.00;98635.66;1715069;80;20970;-80
2022/05/07 05:06:37;;;;;;;36.60;28.73;;;;;;;12.62;100.00;98639.20;1743598;81;21182;-90
2022/05/07 05:09:07;;;;;;;35.25;27.95;;;;;;;12.65;100.00;98640.03;1718701;82;21026;-90
2022/05/07 05:11:34;;;;;;;37.03;28.98;;;;;;;12.65;100.00;98640.03;1681796;82;21248;-90
2022/05/07 05:14:00;;;;;;;56.20;40.15;;;;;;;12.73;100.00;98645.95;1741114;82;21509;-90
2022/05/07 05:16:26;;;;;;;37.63;27.45;;;;;;;12.78;100.00;98649.48;1743432;81;21670;-80
2022/05/07 05:18:52;;;;;;;35.65;27.62;;;;;;;12.85;100.00;98645.11;1724823;80;21297;-90
2022/05/07 05:21:18;;;;;;;35.90;25.70;;;;;;;12.91;100.00;98646.72;1721375;82;21489;-81
2022/05/07 05:23:46;;;;;;;36.28;26.45;;;;;;;12.96;100.00;98647.48;1709190;80;20891;-80
2022/05/07 05:26:11;;;;;;;36.05;25.35;;;;;;;13.02;99.88;98644.75;1743226;82;21033;-91
2022/05/07 05:28:39;;;;;;;36.83;26.50;;;;;;;13.07;99.71;98647.42;1743266;81;20855;-80
2022/05/07 05:31:06;;;;;;;35.63;25.75;;;;;;;13.10;99.40;98650.42;1731399;82;21674;-80
2022/05/07 05:33:32;;;;;;;34.48;26.25;;;;;;;13.17;99.48;98652.84;1707736;82;21061;-80
2022/05/07 05:35:57;;;;;;;36.30;27.40;;;;;;;13.12;99.11;98650.94;1712679;80;20875;-90
2022/05/07 05:38:24;;;;;;;37.83;28.70;;;;;;;13.16;99.32;98652.02;1728655;80;20895;-91
2022/05/07 05:40:50;;;;;;;33.58;26.65;;;;;;;13.21;99.07;98649.83;1742484;82;21087;-80
2022/05/07 05:43:17;;;;;;;34.58;27.02;;;;;;;13.27;99.06;98650.08;1721656;82;21148;-80
2022/05/07 05:45:43;;;;;;;34.63;26.48;;;;;;;13.33;98.79;98654.92;1743309;82;21170;-81
2022/05/07 05:48:09;;;;;;;35.65;27.35;;;;;;;13.45;98.54;98654.85;1733358;81;20957;-80
2022/05/07 05:50:35;;;;;;;40.08;30.12;;;;;;;13.44;98.13;98653.78;1733220;80;21521;-90
2022/05/07 05:53:01;;;;;;;38.40;25.30;;;;;;;13.47;97.87;98652.66;1718725;80;21010;-91
2022/05/07 05:55:27;;;;;;;35.95;27.35;;;;;;;13.52;97.29;98652.63;1719563;80;21294;-87
2022/05/07 05:57:53;;;;;;;42.40;27.10;;;;;;;13.51;97.38;98651.01;1732915;80;20842;-91
2022/05/07 06:00:19;;;;;;;35.95;27.10;;;;;;;13.65;96.86;98653.07;1743709;82;20969;-91
2022/05/07 06:02:45;;;;;;;35.45;26.97;;;;;;;13.70;97.09;98656.58;1743464;81;21004;-80
2022/05/07 06:05:12;;;;;;;35.17;26.20;;;;;;;13.78;96.10;98654.61;1742321;82;20875;-91
2022/05/07 06:07:38;;;;;;;34.00;26.52;;;;;;;13.84;96.35;98663.53;1710621;80;21081;-90
2022/05/07 06:10:05;;;;;;;37.42;25.15;;;;;;;13.91;96.09;98658.57;1743437;82;21345;-80
2022/05/07 06:12:31;;;;;;;35.65;24.57;;;;;;;14.01;95.93;98659.02;1743431;81;21487;-91
2022/05/07 06:14:57;;;;;;;34.35;27.93;;;;;;;14.17;95.45;98656.98;1726935;82;21060;-91
2022/05/07 06:17:23;;;;;;;32.45;27.62;;;;;;;14.21;95.01;98656.68;1704018;82;20875;-90
2022/05/07 06:19:49;;;;;;;32.73;25.52;;;;;;;14.27;95.26;98657.71;1716278;80;21092;-82
2022/05/07 06:22:15;;;;;;;28.83;23.70;;;;;;;14.39;94.80;98657.30;1728193;80;21025;-90
2022/05/07 06:27:29;;;;;;;31.00;25.00;;;;;;;14.71;94.53;98662.16;1743259;81;21017;-91
2022/05/07 06:29:56;;;;;;;;;;;;;;;14.85;94.06;98664.42;1746402;82;21024;-81
2022/05/07 06:32:23;;;;;;;29.35;22.60;;;;;;;14.97;93.99;98661.86;1705654;84;21073;-91
2022/05/07 06:34:49;;;;;;;26.17;21.50;;;;;;;15.11;93.43;98660.01;1728879;80;21046;-92
2022/05/07 06:37:15;;;;;;;29.10;21.48;;;;;;;15.21;92.56;98659.34;1729145;80;20958;-81
2022/05/07 06:39:41;;;;;;;25.55;21.25;;;;;;;15.27;92.44;98659.25;1743625;82;20993;-91
2022/05/07 06:42:08;;;;;;;24.80;21.45;;;;;;;15.34;92.00;98664.61;1743317;81;20953;-91
2022/05/07 06:44:33;;;;;;;22.02;18.95;;;;;;;15.41;91.78;98666.42;1710099;82;21101;-80
2022/05/07 06:46:59;;;;;;;24.25;19.23;;;;;;;15.48;90.16;98665.50;1729422;82;20950;-81
2022/05/07 06:49:25;;;;;;;27.55;20.70;;;;;;;15.42;89.91;98668.04;1720897;80;20887;-93
2022/05/07 06:51:51;;;;;;;30.57;21.35;;;;;;;15.51;89.08;98666.27;1717712;82;21530;-80
2022/05/07 06:54:17;;;;;;;23.70;18.95;;;;;;;15.52;87.80;98669.80;1709639;82;20851;-91
2022/05/07 06:56:43;;;;;;;29.82;22.98;;;;;;;15.51;86.41;98668.99;1723840;80;21319;-91
2022/05/07 06:59:12;;;;;;;24.30;20.92;;;;;;;15.59;87.00;98671.61;1714355;82;21061;-90
2022/05/07 07:01:38;;;;;;;29.12;21.80;;;;;;;15.62;86.65;98671.04;1724333;82;21568;-91
2022/05/07 07:04:04;;;;;;;29.48;21.70;;;;;;;15.69;86.99;98673.41;1736574;80;20882;-81
2022/05/07 07:06:30;;;;;;;27.02;22.17;;;;;;;15.90;87.91;98673.91;1733025;81;21442;-81
2022/05/07 07:08:56;;;;;;;32.25;24.05;;;;;;;16.04;88.06;98676.92;1728394;82;21153;-81
2022/05/07 07:11:22;;;;;;;23.98;19.85;;;;;;;16.22;88.34;98673.88;1734300;80;21036;-91
2022/05/07 07:13:49;;;;;;;23.10;19.00;;;;;;;16.35;86.98;98675.84;1725360;82;21000;-91
2022/05/07 07:16:15;;;;;;;27.95;21.33;;;;;;;16.48;86.88;98680.25;1724998;82;21029;-81
2022/05/07 07:18:41;;;;;;;23.25;19.25;;;;;;;16.55;87.11;98675.19;1719849;82;20993;-92
2022/05/07 07:21:07;;;;;;;24.10;19.15;;;;;;;16.60;85.10;98676.48;1741934;82;21182;-92
2022/05/07 07:23:33;;;;;;;23.62;20.77;;;;;;;16.75;85.92;98673.48;1743099;81;20854;-82
2022/05/07 07:25:59;;;;;;;24.75;20.30;;;;;;;16.90;85.94;98664.12;1714087;82;21646;-91
2022/05/07 07:28:25;;;;;;;26.55;20.88;;;;;;;16.92;82.60;98671.50;1731038;82;20882;-81
2022/05/07 07:30:51;;;;;;;22.30;18.50;;;;;;;16.80;79.58;98677.47;1736618;82;20945;-81
2022/05/07 07:33:17;;;;;;;25.50;21.23;;;;;;;17.09;82.47;98668.95;1726695;82;21296;-92
2022/05/07 07:35:43;;;;;;;27.52;21.87;;;;;;;17.29;82.89;98669.61;1718267;82;20883;-81
2022/05/07 07:38:10;;;;;;;24.25;20.35;;;;;;;17.46;82.50;98667.84;1725356;80;21076;-81
2022/05/07 07:40:37;;;;;;;25.77;21.40;;;;;;;17.49;78.41;98670.52;1700247;82;39788;-93
2022/05/07 07:43:03;;;;;;;28.23;23.18;;;;;;;17.55;77.96;98667.11;1730410;82;21105;-92
2022/05/07 07:48:14;;;;;;;29.12;23.50;;;;;;;17.84;78.81;98662.03;1730845;81;21012;-81
2022/05/07 07:50:40;;;;;;;27.85;21.42;;;;;;;17.92;75.50;98665.40;1734470;82;20949;-92
2022/05/07 07:53:08;;;;;;;26.52;21.12;;;;;;;18.19;77.67;98664.44;1719328;81;20887;-93
2022/05/07 07:55:36;;;;;;;27.93;21.50;;;;;;;18.29;76.66;98664.76;1712222;80;21038;-81
2022/05/07 07:58:05;;;;;;;27.98;20.80;;;;;;;18.14;75.69;98663.78;1729378;82;21288;-93
2022/05/07 08:00:31;;;;;;;24.92;19.30;;;;;;;18.01;73.42;98668.20;1722896;80;21540;-81
2022/05/07 08:02:59;;;;;;;28.55;22.07;;;;;;;17.75;71.63;98669.38;1729811;80;21065;-91
2022/05/07 08:05:30;;;;;;;30.05;22.75;;;;;;;17.86;74.59;98669.41;1738612;82;21033;-81
2022/05/07 08:13:26;;;;;;;31.07;23.00;;;;;;;17.78;74.61;98674.83;1712224;82;20958;-92
2022/05/07 08:15:52;;;;;;;30.95;22.90;;;;;;;17.61;72.27;98672.72;1728744;80;21025;-81
2022/05/07 08:18:19;;;;;;;27.95;22.17;;;;;;;17.51;72.94;98676.48;1738334;82;21441;-80
2022/05/07 08:20:45;;;;;;;33.55;23.52;;;;;;;17.60;73.34;98674.63;1731153;82;21014;-93
2022/05/07 08:23:11;;;;;;;30.92;23.83;;;;;;;17.70;72.88;98674.44;1721493;80;21308;-92
2022/05/07 08:25:37;;;;;;;30.88;21.82;;;;;;;17.94;72.11;98676.86;1738495;82;22478;-80
2022/05/07 08:28:03;;;;;;;29.65;21.77;;;;;;;18.03;70.02;98677.75;1743043;81;20945;-81
2022/05/07 08:30:30;;;;;;;29.50;22.45;;;;;;;18.19;69.95;98674.59;1733110;82;21020;-81
2022/05/07 08:32:56;;;;;;;32.03;21.50;;;;;;;18.46;70.74;98675.82;1728659;81;21095;-91
2022/05/07 08:35:22;;;;;;;32.05;22.10;;;;;;;18.12;66.90;98680.55;1732320;82;21497;-80
2022/05/07 08:37:50;;;;;;;27.10;20.45;;;;;;;18.21;69.20;98680.05;1710000;82;20982;-91
2022/05/07 08:40:18;;;;;;;27.95;21.42;;;;;;;18.29;69.03;98688.08;1722585;80;21092;-93
2022/05/07 08:42:44;;;;;;;25.50;19.70;;;;;;;18.37;69.16;98681.80;1692836;82;21017;-92
2022/05/07 08:45:12;;;;;;;27.70;20.45;;;;;;;18.42;67.86;98683.61;1719968;80;21014;-91
2022/05/07 08:47:38;;;;;;;26.45;19.15;;;;;;;18.22;67.81;98684.97;1770436;80;21133;-91
2022/05/07 08:50:08;;;;;;;29.67;21.48;;;;;;;18.32;68.31;98690.18;1719237;82;21003;-87
2022/05/07 08:52:42;;;;;;;29.95;19.73;;;;;;;18.12;65.12;98690.72;1738612;81;20973;-91
2022/05/07 08:55:13;;;;;;;30.40;20.70;;;;;;;18.30;65.64;98687.76;1739725;82;20978;-80
2022/05/07 08:57:40;;;;;;;26.60;20.55;;;;;;;18.52;67.22;98686.89;1713213;81;21013;-91
2022/05/07 09:00:07;;;;;;;31.93;21.23;;;;;;;18.40;64.04;98688.05;1725495;80;21299;-92
2022/05/07 09:02:44;;;;;;;36.25;23.20;;;;;;;18.15;63.68;98690.88;1736839;80;21429;-91
2022/05/07 09:05:12;;;;;;;27.95;18.80;;;;;;;18.25;65.84;98693.92;1725723;82;22080;-80
2022/05/07 09:07:41;;;;;;;24.75;17.85;;;;;;;18.36;66.92;98686.23;1703165;82;21447;-91
2022/05/07 09:10:12;;;;;;;24.12;18.40;;;;;;;18.36;66.23;98695.27;1744853;80;21075;-91
2022/05/07 09:12:38;;;;;;;26.85;18.02;;;;;;;18.32;65.67;98691.55;1717710;83;21204;-83
2022/05/07 09:15:06;;;;;;;26.95;21.48;;;;;;;18.30;66.67;98699.30;1728733;82;20891;-80
2022/05/07 09:17:33;;;;;;;22.22;15.58;;;;;;;18.25;65.74;98691.99;1743473;82;21004;-81
2022/05/07 09:20:18;;;;;;;21.60;16.15;;;;;;;18.24;66.31;98692.31;1726469;82;21004;-81
2022/05/07 09:22:56;;;;;;;23.98;15.38;;;;;;;18.25;65.61;98696.67;1720471;82;21080;-92
2022/05/07 09:25:26;;;;;;;21.50;15.75;;;;;;;18.19;64.63;98691.05;1723636;80;21138;-91
2022/05/07 09:27:55;;;;;;;19.75;13.65;;;;;;;18.12;62.24;98694.27;1732623;80;21037;-80
2022/05/07 09:30:24;;;;;;;19.48;13.68;;;;;;;18.26;64.32;98685.38;1743551;82;20993;-81
2022/05/07 09:32:52;;;;;;;22.52;13.93;;;;;;;18.33;64.45;98680.83;1720670;82;21009;-80
2022/05/07 09:38:05;;;;;;;21.02;14.43;;;;;;;17.94;58.91;98683.71;1747270;80;21175;-80
2022/05/07 09:40:31;;;;;;;22.67;14.45;;;;;;;17.93;62.12;98677.17;1732824;80;21033;-81
2022/05/07 09:42:58;;;;;;;19.48;13.43;;;;;;;17.91;62.62;98681.60;1733639;81;21053;-81
2022/05/07 09:45:34;;;;;;;20.52;12.78;;;;;;;17.85;62.67;98674.61;1712590;82;21516;-91
2022/05/07 09:48:00;;;;;;;24.43;12.40;;;;;;;17.46;57.15;98682.09;1722605;82;21056;-92
2022/05/07 09:58:38;;;;;;;28.87;13.38;;;;;;;17.28;61.64;98668.00;1707541;80;21006;-80
2022/05/07 10:01:22;;;;;;;16.75;11.73;;;;;;;17.20;61.45;98662.68;1734616;80;21060;-80
2022/05/07 10:04:30;;;;;;;24.05;13.53;;;;;;;17.02;60.80;98665.80;1725871;82;21333;-91
2022/05/07 10:07:24;;;;;;;43.50;15.83;;;;;;;17.04;61.94;98669.04;1743538;81;21052;-80
2022/05/07 10:10:24;;;;;;;42.75;17.52;;;;;;;17.16;62.94;98659.73;1723911;82;21004;-93
2022/05/07 10:12:49;;;;;;;28.15;15.30;;;;;;;17.30;63.19;98666.56;1727929;82;21009;-80
2022/05/07 10:15:18;;;;;;;22.73;15.85;;;;;;;17.39;62.72;98668.81;1741804;82;21080;-92
2022/05/07 10:17:44;;;;;;;;;;;;;;;17.54;62.00;98669.60;1719590;82;21082;-81
2022/05/07 10:20:12;;;;;;;35.28;23.67;;;;;;;17.47;59.13;98672.20;1730749;82;20163;-92
2022/05/07 10:22:38;;;;;;;31.90;19.65;;;;;;;17.65;60.48;98669.04;1733962;82;21473;-80
2022/05/07 10:25:10;;;;;;;22.65;15.13;;;;;;;17.84;59.02;98673.56;1741468;82;21040;-92
2022/05/07 10:27:44;;;;;;;23.95;11.48;;;;;;;18.00;59.20;98666.02;1718722;82;21024;-80
2022/05/07 10:30:22;;;;;;;24.55;11.03;;;;;;;18.28;58.83;98667.23;1740919;82;21081;-80
2022/05/07 10:32:58;;;;;;;17.23;10.77;;;;;;;18.54;60.09;98672.31;1719845;82;21012;-92
2022/05/07 10:35:58;;;;;;;23.40;10.88;;;;;;;18.66;56.38;98679.16;1725216;80;21038;-92
2022/05/07 10:38:28;;;;;;;17.12;10.30;;;;;;;18.87;58.55;98667.27;1726928;81;21044;-80
2022/05/07 10:41:15;;;;;;;24.27;11.43;;;;;;;19.12;58.56;98671.79;1720087;80;20996;-80
2022/05/07 10:43:42;;;;;;;23.02;9.95;;;;;;;19.31;57.39;98673.70;1724975;82;21329;-80
2022/05/07 10:46:12;;;;;;;32.73;10.70;;;;;;;19.19;51.98;98670.76;1719736;80;21054;-80
2022/05/07 10:48:55;;;;;;;14.80;11.35;;;;;;;19.42;55.35;98668.70;1727822;81;21093;-80
2022/05/07 10:51:30;;;;;;;15.05;10.28;;;;;;;19.45;54.27;98667.48;1731933;80;21044;-80
2022/05/07 10:53:59;;;;;;;28.80;12.47;;;;;;;19.38;55.09;98664.39;1727927;82;21009;-92
2022/05/07 10:56:24;;;;;;;17.80;9.20;;;;;;;19.30;54.30;98663.81;1737822;80;21071;-91
2022/05/07 10:58:51;;;;;;;15.83;9.28;;;;;;;19.31;54.95;98668.20;1746336;80;20963;-80
2022/05/07 11:01:18;;;;;;;13.43;9.58;;;;;;;19.13;52.36;98665.16;1749219;80;21461;-80
2022/05/07 11:03:44;;;;;;;18.60;10.98;;;;;;;19.21;53.56;98664.38;1735726;82;21056;-80
2022/05/07 11:06:10;;;;;;;21.37;12.70;;;;;;;19.19;53.56;98665.27;1735780;82;22143;-92
2022/05/07 11:08:49;;;;;;;18.27;11.10;;;;;;;19.22;51.44;98665.98;1725634;82;21267;-89
2022/05/07 11:11:16;;;;;;;22.60;11.88;;;;;;;19.34;51.28;98664.80;1728235;82;21001;-81
2022/05/07 11:13:52;;;;;;;17.55;9.15;;;;;;;19.83;51.73;98664.12;1724889;82;21520;-92
2022/05/07 11:16:19;;;;;;;21.17;12.00;;;;;;;20.41;52.11;98670.15;1729026;82;21026;-92
2022/05/07 11:18:51;;;;;;;12.23;8.90;;;;;;;20.60;51.93;98668.44;1722574;80;21004;-92
2022/05/07 11:21:18;;;;;;;15.58;9.25;;;;;;;20.04;47.92;98665.63;1709133;82;21147;-92
2022/05/07 11:23:45;;;;;;;22.82;10.32;;;;;;;20.11;51.13;98665.14;1715149;82;21147;-81
2022/05/07 11:26:16;;;;;;;18.45;8.73;;;;;;;19.89;50.81;98664.18;1743266;82;21036;-81
2022/05/07 11:28:43;;;;;;;17.12;8.25;;;;;;;19.85;51.69;98667.36;1724355;82;21076;-82
2022/05/07 11:31:15;;;;;;;13.62;8.38;;;;;;;19.21;49.42;98666.31;1703616;82;21014;-93
2022/05/07 11:33:40;;;;;;;16.20;8.20;;;;;;;19.04;49.48;98667.89;1676443;83;21080;-81
2022/05/07 11:36:07;;;;;;;16.15;8.70;;;;;;;18.72;49.47;98663.61;1747567;80;20870;-81
2022/05/07 11:38:35;;;;;;;15.72;7.50;;;;;;;18.66;49.66;98664.06;1730802;80;21040;-92
2022/05/07 11:41:12;;;;;;;14.03;8.53;;;;;;;18.51;51.26;98663.32;1710061;82;21097;-92
2022/05/07 11:46:23;;;;;;;13.30;7.97;;;;;;;18.35;52.36;98663.48;1728661;80;21881;-93
2022/05/07 11:48:49;;;;;;;13.25;6.53;;;;;;;18.44;53.08;98666.27;1757436;80;21193;-80